createdAt,value
2018-11-04T00:00:45.420Z,37.83
2018-11-04T00:05:49.697Z,32.70
2018-11-04T00:10:53.511Z,30.00
2018-11-04T00:15:57.201Z,32.10
2018-11-04T00:21:02.129Z,30.33
2018-11-04T00:26:06.826Z,33.20
2018-11-04T00:31:10.774Z,30.97
2018-11-04T00:36:14.488Z,37.87
2018-11-04T00:41:18.079Z,37.80
2018-11-04T00:46:21.733Z,38.27
2018-11-04T00:51:25.367Z,39.23
2018-11-04T00:56:29.044Z,41.03
2018-11-04T01:01:32.624Z,38.67
2018-11-04T01:06:36.201Z,41.83
2018-11-04T01:11:39.815Z,39.17
2018-11-04T01:16:47.375Z,39.67
2018-11-04T01:21:51.090Z,40.70
2018-11-04T01:26:54.728Z,40.07
2018-11-04T01:31:58.268Z,42.90
2018-11-04T01:37:02.236Z,40.27
2018-11-04T01:42:06.362Z,43.53
2018-11-04T01:47:09.959Z,43.07
2018-11-04T01:52:13.675Z,40.70
2018-11-04T01:57:17.267Z,42.37
2018-11-04T02:02:21.022Z,42.97
2018-11-04T02:07:24.654Z,41.83
2018-11-04T02:12:28.619Z,39.87
2018-11-04T02:17:32.199Z,35.10
2018-11-04T02:22:35.775Z,35.17
2018-11-04T02:27:39.688Z,33.60
2018-11-04T02:32:44.343Z,34.63
2018-11-04T02:37:47.891Z,36.90
2018-11-04T02:42:51.487Z,32.77
2018-11-04T02:47:55.314Z,33.63
2018-11-04T02:52:58.958Z,33.97
2018-11-04T02:58:02.905Z,36.60
2018-11-04T03:03:06.924Z,35.10
2018-11-04T03:08:10.568Z,33.03
2018-11-04T03:13:14.257Z,36.80
2018-11-04T03:18:17.864Z,33.10
2018-11-04T03:23:21.481Z,35.77
2018-11-04T03:28:25.061Z,36.57
2018-11-04T03:33:28.739Z,36.60
2018-11-04T03:38:32.361Z,33.67
2018-11-04T03:43:35.909Z,30.50
2018-11-04T03:48:39.546Z,33.17
2018-11-04T03:53:43.125Z,35.17
2018-11-04T03:58:46.798Z,33.27
2018-11-04T04:03:50.364Z,33.43
2018-11-04T04:08:54.125Z,29.73
2018-11-04T04:13:57.731Z,34.30
2018-11-04T04:19:01.393Z,33.23
2018-11-04T04:24:05.182Z,31.17
2018-11-04T04:29:08.861Z,32.43
2018-11-04T04:34:12.704Z,28.73
2018-11-04T04:39:16.316Z,30.37
2018-11-04T04:44:19.945Z,32.20
2018-11-04T04:49:23.575Z,28.27
2018-11-04T04:54:29.503Z,27.33
2018-11-04T04:59:33.274Z,28.00
2018-11-04T05:04:36.963Z,27.13
2018-11-04T05:09:40.519Z,29.27
2018-11-04T05:14:44.186Z,26.80
2018-11-04T05:19:47.817Z,27.17
2018-11-04T05:24:51.419Z,37.03
2018-11-04T05:29:54.992Z,32.53
2018-11-04T05:34:58.624Z,29.70
2018-11-04T05:40:02.483Z,28.27
2018-11-04T05:45:07.167Z,27.07
2018-11-04T05:50:10.784Z,28.80
2018-11-04T05:55:14.337Z,26.23
2018-11-04T06:00:26.076Z,27.90
2018-11-04T06:05:29.784Z,25.97
2018-11-04T06:10:33.394Z,28.33
2018-11-04T06:15:37.259Z,27.63
2018-11-04T06:20:40.845Z,24.63
2018-11-04T06:25:44.448Z,27.47
2018-11-04T06:30:48.633Z,25.13
2018-11-04T06:35:52.230Z,28.50
2018-11-04T06:40:55.879Z,28.00
2018-11-04T06:45:59.465Z,27.50
2018-11-04T06:51:03.081Z,26.63
2018-11-04T06:56:06.997Z,24.27
2018-11-04T07:01:10.618Z,24.80
2018-11-04T07:06:14.339Z,24.10
2018-11-04T07:11:18.046Z,26.37
2018-11-04T07:16:21.644Z,31.47
2018-11-04T07:21:25.449Z,29.03
2018-11-04T07:26:29.097Z,26.30
2018-11-04T07:31:32.913Z,31.03
2018-11-04T07:36:36.524Z,28.93
2018-11-04T07:41:40.250Z,32.30
2018-11-04T07:46:43.867Z,30.40
2018-11-04T07:51:47.417Z,27.20
2018-11-04T07:56:51.109Z,27.90
2018-11-04T08:01:54.712Z,32.65
2018-11-04T08:06:58.331Z,28.10
2018-11-04T08:12:01.950Z,29.67
2018-11-04T08:17:06.006Z,29.00
2018-11-04T08:22:09.717Z,29.97
2018-11-04T08:27:13.495Z,29.00
2018-11-04T08:32:17.118Z,29.00
2018-11-04T08:37:20.873Z,32.23
2018-11-04T08:42:24.409Z,27.10
2018-11-04T08:47:28.013Z,30.83
2018-11-04T08:52:31.668Z,30.40
2018-11-04T08:57:35.258Z,31.53
2018-11-04T09:02:38.881Z,32.50
2018-11-04T09:07:42.510Z,32.67
2018-11-04T09:12:46.568Z,28.73
2018-11-04T09:17:50.225Z,32.90
2018-11-04T09:22:53.793Z,36.53
2018-11-04T09:27:57.453Z,41.33
2018-11-04T09:33:01.199Z,33.80
2018-11-04T09:38:05.308Z,41.70
2018-11-04T09:43:08.859Z,36.13
2018-11-04T09:48:12.571Z,32.97
2018-11-04T09:53:16.319Z,33.73
2018-11-04T09:58:19.952Z,34.40
2018-11-04T10:03:23.561Z,36.27
2018-11-04T10:08:27.616Z,29.40
2018-11-04T10:13:31.209Z,32.57
2018-11-04T10:18:34.755Z,35.20
2018-11-04T10:23:38.785Z,34.60
2018-11-04T10:28:42.435Z,29.93
2018-11-04T10:33:46.156Z,30.80
2018-11-04T10:38:50.029Z,31.13
2018-11-04T10:43:53.571Z,32.77
2018-11-04T10:48:57.388Z,36.33
2018-11-04T10:54:01.249Z,33.07
2018-11-04T10:59:05.145Z,31.70
2018-11-04T11:04:09.264Z,32.00
2018-11-04T11:09:13.007Z,37.60
2018-11-04T11:14:16.751Z,40.70
2018-11-04T11:19:20.401Z,34.73
2018-11-04T11:24:24.045Z,32.97
2018-11-04T11:29:27.719Z,35.03
2018-11-04T11:34:31.428Z,34.47
2018-11-04T11:39:36.728Z,33.03
2018-11-04T11:44:40.405Z,36.23
2018-11-04T11:49:44.008Z,34.77
2018-11-04T11:54:47.749Z,36.47
2018-11-04T11:59:51.473Z,33.50
2018-11-04T12:04:55.051Z,31.63
2018-11-04T12:09:58.622Z,32.97
2018-11-04T12:15:03.691Z,35.60
2018-11-04T12:20:09.871Z,35.20
2018-11-04T12:25:14.088Z,35.40
2018-11-04T12:30:26.983Z,34.67
2018-11-04T12:35:31.643Z,35.37
2018-11-04T12:40:35.397Z,33.33
2018-11-04T12:45:39.076Z,34.43
2018-11-04T12:50:42.711Z,32.77
2018-11-04T12:55:46.301Z,32.77
2018-11-04T13:00:49.884Z,33.50
2018-11-04T13:05:53.517Z,31.40
2018-11-04T13:10:57.060Z,32.27
2018-11-04T13:16:00.674Z,33.63
2018-11-04T13:21:04.301Z,32.40
2018-11-04T13:26:07.882Z,32.10
2018-11-04T13:31:11.527Z,32.83
2018-11-04T13:36:15.186Z,34.37
2018-11-04T13:41:18.778Z,33.57
2018-11-04T13:46:22.393Z,31.87
2018-11-04T13:51:25.959Z,34.23
2018-11-04T13:56:29.780Z,32.90
2018-11-04T14:01:33.368Z,32.70
2018-11-04T14:06:37.157Z,30.80
2018-11-04T14:11:40.812Z,29.50
2018-11-04T14:16:44.389Z,30.23
2018-11-04T14:21:48.131Z,30.50
2018-11-04T14:26:51.792Z,27.70
2018-11-04T14:31:55.505Z,25.73
2018-11-04T14:36:59.155Z,27.20
2018-11-04T14:42:02.827Z,26.27
2018-11-04T14:47:07.433Z,25.20
2018-11-04T14:52:11.338Z,24.00
2018-11-04T14:57:14.974Z,25.63
2018-11-04T15:02:18.666Z,26.00
2018-11-04T15:07:22.303Z,26.30
2018-11-04T15:12:25.907Z,27.03
2018-11-04T15:17:29.624Z,25.93
2018-11-04T15:22:33.213Z,26.17
2018-11-04T15:27:37.104Z,25.43
2018-11-04T15:32:41.211Z,25.03
2018-11-04T15:37:45.204Z,23.37
2018-11-04T15:42:48.785Z,21.33
2018-11-04T15:47:52.386Z,24.90
2018-11-04T15:52:56.010Z,24.07
2018-11-04T15:57:59.648Z,25.57
2018-11-04T16:03:03.333Z,25.20
2018-11-04T16:08:07.219Z,25.13
2018-11-04T16:13:10.724Z,24.30
2018-11-04T16:18:14.431Z,21.80
2018-11-04T16:23:18.177Z,22.07
2018-11-04T16:28:21.890Z,24.03
2018-11-04T16:33:25.492Z,21.10
2018-11-04T16:38:29.080Z,22.20
2018-11-04T16:43:32.885Z,22.90
2018-11-04T16:48:36.393Z,19.57
2018-11-04T16:53:39.959Z,19.53
2018-11-04T16:58:43.524Z,21.67
2018-11-04T17:03:47.391Z,21.60
2018-11-04T17:08:50.947Z,21.53
2018-11-04T17:13:54.539Z,23.60
2018-11-04T17:18:58.279Z,21.10
2018-11-04T17:24:07.022Z,21.30
2018-11-04T17:29:11.504Z,21.03
2018-11-04T17:34:21.415Z,29.07
2018-11-04T17:39:25.065Z,30.07
2018-11-04T17:44:36.121Z,27.13
2018-11-04T17:49:40.058Z,20.60
2018-11-04T17:54:43.932Z,25.60
2018-11-04T17:59:48.325Z,20.63
2018-11-04T18:04:51.958Z,23.80
2018-11-04T18:09:55.557Z,27.50
2018-11-04T18:15:01.709Z,24.00
2018-11-04T18:20:05.983Z,27.10
2018-11-04T18:25:10.577Z,27.00
2018-11-04T18:30:24.034Z,24.90
2018-11-04T18:35:27.608Z,23.87
2018-11-04T18:40:31.129Z,23.07
2018-11-04T18:45:34.695Z,20.90
2018-11-04T18:50:38.306Z,23.10
2018-11-04T18:55:41.858Z,21.87
2018-11-04T19:00:47.171Z,21.07
2018-11-04T19:05:51.585Z,21.60
2018-11-04T19:10:55.242Z,18.07
2018-11-04T19:15:58.817Z,20.80
2018-11-04T19:21:02.596Z,27.97
2018-11-04T19:26:06.572Z,19.87
2018-11-04T19:31:10.262Z,15.27
2018-11-04T19:36:13.928Z,16.20
2018-11-04T19:41:17.531Z,17.40
2018-11-04T19:46:21.186Z,21.23
2018-11-04T19:51:24.793Z,24.40
2018-11-04T19:56:28.319Z,21.30
2018-11-04T20:01:32.186Z,14.13
2018-11-04T20:06:35.875Z,13.67
2018-11-04T20:11:39.643Z,11.57
2018-11-04T20:16:43.409Z,13.20
2018-11-04T20:21:46.950Z,12.90
2018-11-04T20:26:50.833Z,13.10
2018-11-04T20:31:59.579Z,13.00
2018-11-04T20:37:03.143Z,13.80
2018-11-04T20:42:06.680Z,13.93
2018-11-04T20:47:10.424Z,13.30
2018-11-04T20:52:13.996Z,13.13
2018-11-04T20:57:22.883Z,13.90
2018-11-04T21:02:26.902Z,12.60
2018-11-04T21:07:30.226Z,14.00
2018-11-04T21:12:33.848Z,14.50
2018-11-04T21:17:37.465Z,15.00
2018-11-04T21:22:41.022Z,16.80
2018-11-04T21:27:44.729Z,16.67
2018-11-04T21:32:48.427Z,16.53
2018-11-04T21:37:52.398Z,16.07
2018-11-04T21:42:56.393Z,16.00
2018-11-04T21:47:59.976Z,17.43
2018-11-04T21:53:03.621Z,19.07
2018-11-04T21:58:12.002Z,15.60
2018-11-04T22:03:15.776Z,16.27
2018-11-04T22:08:19.208Z,16.70
2018-11-04T22:13:22.728Z,16.77
2018-11-04T22:18:26.433Z,16.53
2018-11-04T22:23:29.985Z,16.80
2018-11-04T22:28:33.968Z,15.50
2018-11-04T22:33:37.869Z,16.17
2018-11-04T22:38:41.901Z,16.23
2018-11-04T22:43:45.773Z,17.87
2018-11-04T22:48:49.602Z,16.83
2018-11-04T22:53:53.212Z,16.90
2018-11-04T22:58:56.832Z,18.37
2018-11-04T23:04:00.480Z,21.10
2018-11-04T23:09:04.746Z,21.00
2018-11-04T23:14:08.479Z,21.63
2018-11-04T23:19:12.159Z,21.83
2018-11-04T23:24:16.755Z,22.30
2018-11-04T23:29:20.401Z,21.57
2018-11-04T23:34:23.851Z,22.90
2018-11-04T23:39:28.072Z,20.90
2018-11-04T23:44:31.602Z,21.33
2018-11-04T23:49:35.217Z,22.10
2018-11-04T23:54:38.811Z,21.63
2018-11-04T23:59:42.414Z,23.47
